Time;durP1;ratioP1;P1;durP2;ratioP2;P2;SDS_P1;SDS_P2;PMS_P1;PMS_P2;Temp;Humidity;BMP_temperature;BMP_pressure;BME280_temperature;BME280_humidity;BME280_pressure;Samples;Min_cycle;Max_cycle;Signal;HPM_P1;HPM_P2
2022/11/15 00:01:10;;;;;;;0.10;0.10;;;;;;;;;;5016651;28;20980;-74
2022/11/15 00:03:56;;;;;;;0.10;0.10;;;;;;;;;;5016382;28;20637;-74
2022/11/15 00:06:42;;;;;;;0.10;0.10;;;;;;;;;;5015328;28;20654;-75
2022/11/15 00:09:29;;;;;;;0.10;0.10;;;;;;;;;;5017977;28;20599;-74
2022/11/15 00:12:15;;;;;;;0.10;0.10;;;;;;;;;;5020214;28;20665;-74
2022/11/15 00:15:01;;;;;;;0.10;0.10;;;;;;;;;;5019878;28;20594;-74
2022/11/15 00:17:51;;;;;;;0.10;0.10;;;;;;;;;;5021110;28;20637;-75
2022/11/15 00:20:37;;;;;;;0.10;0.10;;;;;;;;;;5020312;28;20749;-74
2022/11/15 00:23:23;;;;;;;0.10;0.10;;;;;;;;;;5020744;28;20652;-75
2022/11/15 00:26:13;;;;;;;0.00;0.00;;;;;;;;;;5020950;28;20703;-75
2022/11/15 00:28:59;;;;;;;0.10;0.10;;;;;;;;;;5020101;28;20736;-75
2022/11/15 00:31:45;;;;;;;0.00;0.00;;;;;;;;;;5019729;28;21246;-75
2022/11/15 00:34:32;;;;;;;0.00;0.00;;;;;;;;;;5018340;28;20636;-75
2022/11/15 00:37:19;;;;;;;0.10;0.10;;;;;;;;;;5019543;28;20598;-74
2022/11/15 00:40:05;;;;;;;0.10;0.10;;;;;;;;;;5020478;28;20638;-74
2022/11/15 00:42:51;;;;;;;0.10;0.10;;;;;;;;;;5020683;28;20629;-74
2022/11/15 00:45:37;;;;;;;0.10;0.10;;;;;;;;;;5020287;28;20645;-75
2022/11/15 00:48:23;;;;;;;0.10;0.10;;;;;;;;;;5018554;28;20628;-74
2022/11/15 00:51:11;;;;;;;0.10;0.10;;;;;;;;;;5020839;28;20602;-74
2022/11/15 00:53:58;;;;;;;0.10;0.10;;;;;;;;;;5020690;28;20714;-74
2022/11/15 00:56:46;;;;;;;0.10;0.10;;;;;;;;;;5020007;28;20602;-74
2022/11/15 00:59:32;;;;;;;0.10;0.10;;;;;;;;;;5021100;28;20645;-74
2022/11/15 01:02:19;;;;;;;0.00;0.00;;;;;;;;;;5020592;28;20633;-74
2022/11/15 01:05:05;;;;;;;0.10;0.10;;;;;;;;;;5019736;28;20685;-74
2022/11/15 01:07:54;;;;;;;0.10;0.10;;;;;;;;;;5019829;28;21477;-74
2022/11/15 01:10:40;;;;;;;0.10;0.10;;;;;;;;;;5017697;28;20800;-74
2022/11/15 01:13:27;;;;;;;0.10;0.10;;;;;;;;;;5019316;28;20629;-74
2022/11/15 01:16:14;;;;;;;0.10;0.10;;;;;;;;;;5019495;28;20614;-74
2022/11/15 01:19:00;;;;;;;0.10;0.10;;;;;;;;;;5017955;28;20610;-75
2022/11/15 01:21:46;;;;;;;0.10;0.10;;;;;;;;;;5018794;28;20641;-74
2022/11/15 01:24:34;;;;;;;0.00;0.00;;;;;;;;;;5020358;28;20632;-74
2022/11/15 01:27:21;;;;;;;0.10;0.10;;;;;;;;;;5016666;28;20627;-74
2022/11/15 01:30:08;;;;;;;0.17;0.17;;;;;;;;;;5019381;28;20630;-74
2022/11/15 01:32:54;;;;;;;0.10;0.10;;;;;;;;;;5018467;28;20641;-75
2022/11/15 01:35:41;;;;;;;0.10;0.10;;;;;;;;;;5015722;28;20610;-75
2022/11/15 01:38:26;;;;;;;0.10;0.10;;;;;;;;;;5018025;28;20609;-75
2022/11/15 01:41:19;;;;;;;0.10;0.10;;;;;;;;;;5019269;28;20693;-75
2022/11/15 01:44:23;;;;;;;0.10;0.10;;;;;;;;;;5016083;28;21131;-75
2022/11/15 01:47:10;;;;;;;0.10;0.10;;;;;;;;;;5019672;28;20701;-75
2022/11/15 01:49:59;;;;;;;0.10;0.10;;;;;;;;;;5019186;28;20744;-75
2022/11/15 01:52:45;;;;;;;0.10;0.10;;;;;;;;;;5018862;28;20638;-74
2022/11/15 01:55:31;;;;;;;0.00;0.00;;;;;;;;;;5017834;28;20648;-74
2022/11/15 01:58:20;;;;;;;0.10;0.10;;;;;;;;;;5019062;28;20602;-74
2022/11/15 02:01:06;;;;;;;0.00;0.00;;;;;;;;;;5018834;28;20669;-75
2022/11/15 02:03:54;;;;;;;0.10;0.10;;;;;;;;;;5018916;28;20735;-74
2022/11/15 02:06:40;;;;;;;0.00;0.00;;;;;;;;;;5019238;28;21309;-74
2022/11/15 02:09:26;;;;;;;0.10;0.10;;;;;;;;;;5020323;28;20975;-75
2022/11/15 02:12:13;;;;;;;0.10;0.10;;;;;;;;;;5018351;28;20637;-74
2022/11/15 02:15:01;;;;;;;0.10;0.10;;;;;;;;;;5019446;28;20638;-75
2022/11/15 02:17:53;;;;;;;0.10;0.10;;;;;;;;;;5018308;28;20599;-75
2022/11/15 02:20:45;;;;;;;0.10;0.10;;;;;;;;;;5017627;28;20641;-74
2022/11/15 02:23:50;;;;;;;0.10;0.10;;;;;;;;;;5019812;28;20634;-75
2022/11/15 02:26:47;;;;;;;0.00;0.00;;;;;;;;;;5018304;28;20657;-75
2022/11/15 02:29:43;;;;;;;0.10;0.10;;;;;;;;;;5018207;28;20614;-74
2022/11/15 02:32:35;;;;;;;0.10;0.10;;;;;;;;;;5016374;28;20661;-74
2022/11/15 02:35:27;;;;;;;0.00;0.00;;;;;;;;;;5017838;28;20625;-75
2022/11/15 02:38:19;;;;;;;0.00;0.00;;;;;;;;;;5016792;28;20627;-74
2022/11/15 02:41:08;;;;;;;0.10;0.10;;;;;;;;;;5016712;28;20609;-74
2022/11/15 02:43:57;;;;;;;0.10;0.10;;;;;;;;;;5017751;28;20724;-74
2022/11/15 02:49:52;;;;;;;0.10;0.10;;;;;;;;;;5016295;28;20739;-75
2022/11/15 02:52:38;;;;;;;0.10;0.10;;;;;;;;;;5018532;28;20707;-75
2022/11/15 02:55:29;;;;;;;0.00;0.00;;;;;;;;;;5019372;28;20610;-75
2022/11/15 02:58:29;;;;;;;0.00;0.00;;;;;;;;;;5017388;28;20621;-74
2022/11/15 03:01:20;;;;;;;0.10;0.10;;;;;;;;;;5018262;28;20974;-74
2022/11/15 03:04:11;;;;;;;0.00;0.00;;;;;;;;;;5018589;28;20749;-74
2022/11/15 03:07:02;;;;;;;0.10;0.10;;;;;;;;;;5017006;28;20677;-75
2022/11/15 03:09:52;;;;;;;0.10;0.10;;;;;;;;;;5017034;28;20615;-74
2022/11/15 03:12:42;;;;;;;0.10;0.10;;;;;;;;;;5018090;28;21076;-74
2022/11/15 03:15:30;;;;;;;0.10;0.10;;;;;;;;;;5016557;28;20610;-75
2022/11/15 03:18:20;;;;;;;0.10;0.10;;;;;;;;;;5019259;28;20672;-74
2022/11/15 03:21:09;;;;;;;0.10;0.10;;;;;;;;;;5018577;28;20635;-75
2022/11/15 03:23:57;;;;;;;0.10;0.10;;;;;;;;;;5016562;28;20646;-75
2022/11/15 03:26:45;;;;;;;0.10;0.10;;;;;;;;;;5015053;28;20788;-74
2022/11/15 03:29:34;;;;;;;0.10;0.10;;;;;;;;;;5018347;28;20618;-75
2022/11/15 03:32:22;;;;;;;0.10;0.10;;;;;;;;;;5017376;28;20900;-75
2022/11/15 03:35:10;;;;;;;0.07;0.07;;;;;;;;;;5016223;28;20718;-74
2022/11/15 03:38:00;;;;;;;0.10;0.10;;;;;;;;;;5016879;28;20609;-75
2022/11/15 03:40:50;;;;;;;0.10;0.10;;;;;;;;;;5014857;28;20615;-75
2022/11/15 03:43:41;;;;;;;0.10;0.10;;;;;;;;;;5015760;28;20646;-75
2022/11/15 03:46:29;;;;;;;0.10;0.10;;;;;;;;;;5015904;28;20677;-75
2022/11/15 03:49:17;;;;;;;0.10;0.10;;;;;;;;;;5016029;28;20641;-75
2022/11/15 03:52:05;;;;;;;0.00;0.00;;;;;;;;;;5017191;28;20634;-75
2022/11/15 03:54:52;;;;;;;0.00;0.00;;;;;;;;;;5016173;28;20597;-74
2022/11/15 03:57:40;;;;;;;0.10;0.10;;;;;;;;;;5015737;28;20680;-74
2022/11/15 04:00:26;;;;;;;0.10;0.10;;;;;;;;;;5017248;28;20630;-75
2022/11/15 04:03:12;;;;;;;0.20;0.20;;;;;;;;;;5016756;28;20633;-74
2022/11/15 04:05:59;;;;;;;0.10;0.10;;;;;;;;;;5015882;28;20634;-74
2022/11/15 04:08:45;;;;;;;0.10;0.10;;;;;;;;;;5015115;28;20614;-75
2022/11/15 04:11:31;;;;;;;0.20;0.20;;;;;;;;;;5015302;28;20736;-74
2022/11/15 04:14:18;;;;;;;0.10;0.10;;;;;;;;;;5016889;28;20714;-74
2022/11/15 04:17:04;;;;;;;0.10;0.10;;;;;;;;;;5015178;28;20652;-74
2022/11/15 04:26:01;;;;;;;0.10;0.10;;;;;;;;;;5014883;28;20664;-74
2022/11/15 04:31:47;;;;;;;0.10;0.10;;;;;;;;;;5016234;28;20268;-74
2022/11/15 04:34:35;;;;;;;0.10;0.10;;;;;;;;;;5014584;28;20685;-75
2022/11/15 04:37:21;;;;;;;0.10;0.10;;;;;;;;;;5014983;28;20621;-74
2022/11/15 04:40:08;;;;;;;0.10;0.10;;;;;;;;;;5016502;28;20711;-74
2022/11/15 04:42:54;;;;;;;0.10;0.10;;;;;;;;;;5016260;28;20764;-74
2022/11/15 04:45:40;;;;;;;0.10;0.10;;;;;;;;;;5016891;28;20590;-74
2022/11/15 04:48:28;;;;;;;0.10;0.10;;;;;;;;;;5015320;28;20814;-74
2022/11/15 04:51:14;;;;;;;0.10;0.10;;;;;;;;;;5016771;28;20594;-74
2022/11/15 04:53:59;;;;;;;0.10;0.10;;;;;;;;;;5017410;28;20653;-74
2022/11/15 04:56:46;;;;;;;0.10;0.10;;;;;;;;;;5020030;28;20640;-75
2022/11/15 04:59:32;;;;;;;0.10;0.10;;;;;;;;;;5019995;28;20649;-74
2022/11/15 05:02:19;;;;;;;0.10;0.10;;;;;;;;;;5021768;28;20634;-74
2022/11/15 05:05:06;;;;;;;0.10;0.10;;;;;;;;;;5019692;28;20675;-74
2022/11/15 05:07:52;;;;;;;0.10;0.10;;;;;;;;;;5019407;28;20700;-73
2022/11/15 05:10:38;;;;;;;0.10;0.10;;;;;;;;;;5020007;28;20663;-73
2022/11/15 05:13:24;;;;;;;0.10;0.10;;;;;;;;;;5019019;28;20645;-74
2022/11/15 05:16:11;;;;;;;0.10;0.10;;;;;;;;;;5019965;28;20610;-74
2022/11/15 05:18:57;;;;;;;0.10;0.10;;;;;;;;;;5019193;28;20610;-74
2022/11/15 05:21:45;;;;;;;0.10;0.10;;;;;;;;;;5019643;28;20609;-74
2022/11/15 05:24:31;;;;;;;0.10;0.10;;;;;;;;;;5020676;28;20631;-74
2022/11/15 05:27:17;;;;;;;0.10;0.10;;;;;;;;;;5017757;28;20653;-75
2022/11/15 05:30:04;;;;;;;0.10;0.10;;;;;;;;;;5018617;28;20753;-74
2022/11/15 05:32:50;;;;;;;0.10;0.10;;;;;;;;;;5018728;28;20654;-75
2022/11/15 05:35:37;;;;;;;0.10;0.10;;;;;;;;;;5017866;28;20602;-75
2022/11/15 05:38:25;;;;;;;0.10;0.10;;;;;;;;;;5018033;28;20611;-75
2022/11/15 05:41:11;;;;;;;0.00;0.00;;;;;;;;;;5018804;28;20641;-75
2022/11/15 05:43:57;;;;;;;0.10;0.10;;;;;;;;;;5019524;28;20788;-74
2022/11/15 05:46:45;;;;;;;0.10;0.10;;;;;;;;;;5019012;28;20689;-74
2022/11/15 05:49:32;;;;;;;0.00;0.00;;;;;;;;;;5018014;28;20617;-75
2022/11/15 05:52:20;;;;;;;0.10;0.10;;;;;;;;;;5018852;28;20648;-75
2022/11/15 05:55:09;;;;;;;0.10;0.10;;;;;;;;;;5017997;28;20741;-75
2022/11/15 05:57:55;;;;;;;0.10;0.10;;;;;;;;;;5017826;28;20672;-75
2022/11/15 06:00:42;;;;;;;0.10;0.10;;;;;;;;;;5017598;28;20663;-75
2022/11/15 06:03:29;;;;;;;0.10;0.10;;;;;;;;;;5015420;28;20678;-74
2022/11/15 06:06:15;;;;;;;0.10;0.10;;;;;;;;;;5015976;28;20682;-74
2022/11/15 06:09:02;;;;;;;0.10;0.10;;;;;;;;;;5016706;28;20672;-75
2022/11/15 06:11:49;;;;;;;0.10;0.10;;;;;;;;;;5016192;28;20606;-75
2022/11/15 06:14:36;;;;;;;0.10;0.10;;;;;;;;;;5018454;28;20753;-75
2022/11/15 06:17:22;;;;;;;0.10;0.10;;;;;;;;;;5014650;28;20601;-75
2022/11/15 06:20:09;;;;;;;0.10;0.10;;;;;;;;;;5019224;28;20617;-75
2022/11/15 06:22:57;;;;;;;0.10;0.10;;;;;;;;;;5018224;28;20646;-74
2022/11/15 06:25:44;;;;;;;0.10;0.10;;;;;;;;;;5017190;28;20602;-74
2022/11/15 06:28:32;;;;;;;0.10;0.10;;;;;;;;;;5016988;28;20669;-74
2022/11/15 06:31:18;;;;;;;0.10;0.10;;;;;;;;;;5018528;28;20657;-74
2022/11/15 06:34:05;;;;;;;0.10;0.10;;;;;;;;;;5018841;28;20766;-74
2022/11/15 06:36:51;;;;;;;0.10;0.10;;;;;;;;;;5015359;28;20756;-74
2022/11/15 06:39:36;;;;;;;0.10;0.10;;;;;;;;;;5020205;28;21026;-74
2022/11/15 06:42:23;;;;;;;0.10;0.10;;;;;;;;;;5013640;28;20728;-74
2022/11/15 06:45:11;;;;;;;0.10;0.10;;;;;;;;;;5016984;28;20633;-74
2022/11/15 06:47:57;;;;;;;0.10;0.10;;;;;;;;;;5014691;28;20806;-74
2022/11/15 06:50:44;;;;;;;0.10;0.10;;;;;;;;;;5018651;28;20602;-74
2022/11/15 06:53:31;;;;;;;0.10;0.10;;;;;;;;;;5016289;28;20644;-74
2022/11/15 06:56:17;;;;;;;0.10;0.10;;;;;;;;;;5019079;28;20609;-73
2022/11/15 06:59:03;;;;;;;0.10;0.10;;;;;;;;;;5017185;28;20605;-74
2022/11/15 07:01:52;;;;;;;0.10;0.10;;;;;;;;;;5017145;28;20713;-74
2022/11/15 07:04:38;;;;;;;0.10;0.10;;;;;;;;;;5017606;28;20618;-74
2022/11/15 07:07:24;;;;;;;0.00;0.00;;;;;;;;;;5016378;28;21238;-75
2022/11/15 07:10:11;;;;;;;0.10;0.10;;;;;;;;;;5019100;28;20605;-74
2022/11/15 07:12:57;;;;;;;0.10;0.10;;;;;;;;;;5018378;28;20633;-75
2022/11/15 07:15:44;;;;;;;0.10;0.10;;;;;;;;;;5015851;28;20601;-74
2022/11/15 07:18:32;;;;;;;0.10;0.10;;;;;;;;;;5017407;28;20598;-75
2022/11/15 07:21:19;;;;;;;0.10;0.10;;;;;;;;;;5014900;28;20610;-74
2022/11/15 07:24:06;;;;;;;0.10;0.10;;;;;;;;;;5016939;28;20642;-74
2022/11/15 07:26:52;;;;;;;0.10;0.10;;;;;;;;;;5015458;28;20633;-74
2022/11/15 07:29:38;;;;;;;0.10;0.10;;;;;;;;;;5015062;28;20594;-74
2022/11/15 07:32:24;;;;;;;0.10;0.10;;;;;;;;;;5018017;28;20645;-74
2022/11/15 07:35:12;;;;;;;0.10;0.10;;;;;;;;;;5016364;28;20609;-74
2022/11/15 07:37:59;;;;;;;0.10;0.10;;;;;;;;;;5015710;28;20690;-74
2022/11/15 07:40:45;;;;;;;0.03;0.03;;;;;;;;;;5016610;28;20602;-74
2022/11/15 07:43:33;;;;;;;0.10;0.10;;;;;;;;;;5017785;28;20741;-74
2022/11/15 07:46:19;;;;;;;0.10;0.10;;;;;;;;;;5014717;28;20606;-74
2022/11/15 07:49:05;;;;;;;0.07;0.07;;;;;;;;;;5017038;28;20603;-74
2022/11/15 07:51:53;;;;;;;0.10;0.10;;;;;;;;;;5015509;28;20622;-74
2022/11/15 07:54:39;;;;;;;0.10;0.10;;;;;;;;;;5016727;28;20618;-74
2022/11/15 07:57:26;;;;;;;0.10;0.10;;;;;;;;;;5016836;28;20668;-74
2022/11/15 08:00:13;;;;;;;0.10;0.10;;;;;;;;;;5018166;28;20602;-74
2022/11/15 08:03:06;;;;;;;0.10;0.10;;;;;;;;;;5016938;28;20641;-74
2022/11/15 08:05:52;;;;;;;0.10;0.10;;;;;;;;;;5015536;28;20602;-74
2022/11/15 08:08:40;;;;;;;0.10;0.10;;;;;;;;;;5015472;28;20645;-74
2022/11/15 08:11:26;;;;;;;0.10;0.10;;;;;;;;;;5016698;28;20606;-74
2022/11/15 08:14:12;;;;;;;0.10;0.10;;;;;;;;;;5017158;28;20622;-74
2022/11/15 08:16:59;;;;;;;0.10;0.10;;;;;;;;;;5016379;28;20708;-74
2022/11/15 08:19:45;;;;;;;0.10;0.10;;;;;;;;;;5017208;28;20606;-74
2022/11/15 08:22:32;;;;;;;0.10;0.10;;;;;;;;;;5015936;28;20628;-74
2022/11/15 08:25:19;;;;;;;0.10;0.10;;;;;;;;;;5017478;28;20633;-74
2022/11/15 08:28:06;;;;;;;0.10;0.10;;;;;;;;;;5017477;28;20655;-74
2022/11/15 08:30:52;;;;;;;0.10;0.10;;;;;;;;;;5018441;28;20611;-74
2022/11/15 08:33:39;;;;;;;0.10;0.10;;;;;;;;;;5019123;28;20626;-74
2022/11/15 08:36:25;;;;;;;0.10;0.10;;;;;;;;;;5020842;28;20689;-74
2022/11/15 08:39:12;;;;;;;0.10;0.10;;;;;;;;;;5018946;28;21078;-74
2022/11/15 08:42:00;;;;;;;0.10;0.10;;;;;;;;;;5017799;28;20757;-74
2022/11/15 08:44:46;;;;;;;0.10;0.10;;;;;;;;;;5017933;28;20598;-73
2022/11/15 08:47:32;;;;;;;0.10;0.10;;;;;;;;;;5018581;28;20649;-74
2022/11/15 08:50:19;;;;;;;0.10;0.10;;;;;;;;;;5019557;28;20629;-74
2022/11/15 08:53:06;;;;;;;0.00;0.00;;;;;;;;;;5018715;28;20642;-74
2022/11/15 08:55:52;;;;;;;0.10;0.10;;;;;;;;;;5020720;28;20586;-74
2022/11/15 08:58:40;;;;;;;0.00;0.00;;;;;;;;;;5020421;28;20602;-74
2022/11/15 09:01:27;;;;;;;0.00;0.00;;;;;;;;;;5019792;28;20681;-74
2022/11/15 09:04:13;;;;;;;0.10;0.10;;;;;;;;;;5021376;28;20644;-74
2022/11/15 09:06:59;;;;;;;0.00;0.00;;;;;;;;;;5018453;28;20652;-74
2022/11/15 09:09:46;;;;;;;0.10;0.10;;;;;;;;;;5018797;28;20781;-73
2022/11/15 09:12:32;;;;;;;0.00;0.00;;;;;;;;;;5019117;28;20633;-74
2022/11/15 09:15:20;;;;;;;0.00;0.00;;;;;;;;;;5017704;28;20605;-74
2022/11/15 09:18:06;;;;;;;0.10;0.10;;;;;;;;;;5018578;28;20646;-74
2022/11/15 09:20:53;;;;;;;0.00;0.00;;;;;;;;;;5018599;28;20708;-74
2022/11/15 09:23:39;;;;;;;0.10;0.10;;;;;;;;;;5019260;28;20641;-74
2022/11/15 09:26:25;;;;;;;0.10;0.10;;;;;;;;;;5019515;28;20602;-74
2022/11/15 09:29:11;;;;;;;0.00;0.00;;;;;;;;;;5019766;28;20661;-74
2022/11/15 09:31:59;;;;;;;0.10;0.10;;;;;;;;;;5020756;28;20709;-74
2022/11/15 09:34:45;;;;;;;0.10;0.10;;;;;;;;;;5020081;28;20614;-74
2022/11/15 09:37:33;;;;;;;0.10;0.10;;;;;;;;;;5017967;28;20594;-74
2022/11/15 09:40:22;;;;;;;0.10;0.10;;;;;;;;;;5018315;28;20625;-74
2022/11/15 09:43:25;;;;;;;0.10;0.10;;;;;;;;;;5019477;28;20644;-74
2022/11/15 09:46:16;;;;;;;0.10;0.10;;;;;;;;;;5018614;28;21171;-74
2022/11/15 09:49:05;;;;;;;0.10;0.10;;;;;;;;;;5020408;28;20701;-74
2022/11/15 09:51:35;;;;;;;0.10;0.10;;;;;;;;;;5020379;28;20781;-75
2022/11/15 09:54:10;;;;;;;0.10;0.10;;;;;;;;;;5018126;28;21085;-75
2022/11/15 09:56:39;;;;;;;0.10;0.10;;;;;;;;;;5018970;28;20721;-74
2022/11/15 09:59:15;;;;;;;0.10;0.10;;;;;;;;;;5018461;28;20662;-74
2022/11/15 10:01:58;;;;;;;0.00;0.00;;;;;;;;;;5017864;28;20974;-74
2022/11/15 10:04:28;;;;;;;0.00;0.00;;;;;;;;;;5010194;28;20243;-74
2022/11/15 10:07:12;;;;;;;0.00;0.00;;;;;;;;;;5018153;28;20200;-75
2022/11/15 10:09:44;;;;;;;0.00;0.00;;;;;;;;;;5017088;28;20232;-75
2022/11/15 10:12:12;;;;;;;0.10;0.10;;;;;;;;;;5025791;28;20306;-75
2022/11/15 10:14:39;;;;;;;0.10;0.10;;;;;;;;;;5009707;28;20211;-75
2022/11/15 10:17:31;;;;;;;0.00;0.00;;;;;;;;;;5017615;28;20196;-75
2022/11/15 10:20:05;;;;;;;0.00;0.00;;;;;;;;;;4992998;28;20231;-75
2022/11/15 10:22:36;;;;;;;0.00;0.00;;;;;;;;;;5008024;28;20236;-75
2022/11/15 10:25:17;;;;;;;0.00;0.00;;;;;;;;;;5019274;28;20255;-75
2022/11/15 10:27:46;;;;;;;0.10;0.10;;;;;;;;;;5007371;28;20274;-75
2022/11/15 10:30:14;;;;;;;0.00;0.00;;;;;;;;;;5016599;28;20201;-75
2022/11/15 10:32:43;;;;;;;0.10;0.10;;;;;;;;;;5016769;28;20346;-75
2022/11/15 10:35:20;;;;;;;0.00;0.00;;;;;;;;;;5027589;28;20245;-75
2022/11/15 10:37:50;;;;;;;0.00;0.00;;;;;;;;;;5008346;28;20259;-76
2022/11/15 10:40:19;;;;;;;0.00;0.00;;;;;;;;;;5018279;28;20200;-76
2022/11/15 10:42:47;;;;;;;0.00;0.00;;;;;;;;;;5016747;28;20220;-76
2022/11/15 10:45:24;;;;;;;0.03;0.03;;;;;;;;;;5018898;28;20200;-74
2022/11/15 10:47:52;;;;;;;0.00;0.00;;;;;;;;;;5014784;28;20216;-74
2022/11/15 10:50:32;;;;;;;0.00;0.00;;;;;;;;;;5017774;28;20290;-74
2022/11/15 10:53:01;;;;;;;0.00;0.00;;;;;;;;;;5012247;28;20347;-74
2022/11/15 10:55:30;;;;;;;0.00;0.00;;;;;;;;;;5027086;28;20208;-74
2022/11/15 10:58:01;;;;;;;0.00;0.00;;;;;;;;;;5016765;28;20207;-74
2022/11/15 11:00:31;;;;;;;0.07;0.07;;;;;;;;;;5008232;28;20298;-74
2022/11/15 11:02:59;;;;;;;0.00;0.00;;;;;;;;;;5016625;28;20227;-73
2022/11/15 11:05:29;;;;;;;0.07;0.07;;;;;;;;;;5017049;28;20204;-74
2022/11/15 11:07:59;;;;;;;0.00;0.00;;;;;;;;;;5013999;28;20224;-74
2022/11/15 11:10:27;;;;;;;0.00;0.00;;;;;;;;;;5017173;28;20213;-74
2022/11/15 11:12:54;;;;;;;0.00;0.00;;;;;;;;;;5015698;28;20234;-74
2022/11/15 11:15:24;;;;;;;0.10;0.10;;;;;;;;;;5016356;28;20203;-74
2022/11/15 11:18:00;;;;;;;0.00;0.00;;;;;;;;;;5016133;28;20201;-73
2022/11/15 11:20:31;;;;;;;0.00;0.00;;;;;;;;;;5016657;28;20310;-74
2022/11/15 11:23:04;;;;;;;0.00;0.00;;;;;;;;;;5015547;28;20223;-74
2022/11/15 11:25:34;;;;;;;0.00;0.00;;;;;;;;;;5021774;28;20219;-73
2022/11/15 11:28:17;;;;;;;0.00;0.00;;;;;;;;;;5027389;28;20267;-73
2022/11/15 11:30:49;;;;;;;0.00;0.00;;;;;;;;;;5016522;28;20223;-74
2022/11/15 11:33:18;;;;;;;0.00;0.00;;;;;;;;;;5008671;28;20224;-74
2022/11/15 11:35:50;;;;;;;0.00;0.00;;;;;;;;;;5013659;28;20250;-73
2022/11/15 11:38:23;;;;;;;0.00;0.00;;;;;;;;;;5016881;28;20290;-74
2022/11/15 11:41:01;;;;;;;0.00;0.00;;;;;;;;;;5023157;28;20207;-74
2022/11/15 11:43:34;;;;;;;0.00;0.00;;;;;;;;;;5017159;28;20258;-74
2022/11/15 11:46:08;;;;;;;0.00;0.00;;;;;;;;;;5015818;28;20682;-73
2022/11/15 11:48:41;;;;;;;0.00;0.00;;;;;;;;;;5009608;28;20235;-73
2022/11/15 11:51:13;;;;;;;0.00;0.00;;;;;;;;;;5024995;28;20211;-74
2022/11/15 11:53:44;;;;;;;0.00;0.00;;;;;;;;;;5015426;28;20224;-74
2022/11/15 11:56:16;;;;;;;0.00;0.00;;;;;;;;;;5016851;28;20197;-74
2022/11/15 11:58:44;;;;;;;0.00;0.00;;;;;;;;;;5006100;28;20233;-74
2022/11/15 12:01:15;;;;;;;0.00;0.00;;;;;;;;;;5005347;28;20300;-74
2022/11/15 12:03:45;;;;;;;0.00;0.00;;;;;;;;;;5023904;28;20245;-74
2022/11/15 12:06:21;;;;;;;0.00;0.00;;;;;;;;;;5008649;28;20196;-74
2022/11/15 12:08:52;;;;;;;0.00;0.00;;;;;;;;;;5016586;28;20223;-74
2022/11/15 12:11:22;;;;;;;0.00;0.00;;;;;;;;;;5025783;28;20197;-74
2022/11/15 12:13:50;;;;;;;0.00;0.00;;;;;;;;;;5007031;28;20332;-74
2022/11/15 12:16:20;;;;;;;0.00;0.00;;;;;;;;;;5017224;28;20203;-74
2022/11/15 12:18:49;;;;;;;0.00;0.00;;;;;;;;;;5015903;28;20657;-74
2022/11/15 12:21:20;;;;;;;0.00;0.00;;;;;;;;;;5014639;28;20207;-74
2022/11/15 12:23:50;;;;;;;0.00;0.00;;;;;;;;;;5005645;28;20239;-74
2022/11/15 12:26:21;;;;;;;0.00;0.00;;;;;;;;;;5016368;28;20208;-74
2022/11/15 12:28:51;;;;;;;0.00;0.00;;;;;;;;;;5024853;28;20235;-74
2022/11/15 12:31:23;;;;;;;0.00;0.00;;;;;;;;;;5010147;28;20233;-74
2022/11/15 12:33:51;;;;;;;0.00;0.00;;;;;;;;;;5006699;28;20235;-74
2022/11/15 12:36:32;;;;;;;0.00;0.00;;;;;;;;;;5016394;28;20202;-74
2022/11/15 12:39:00;;;;;;;0.00;0.00;;;;;;;;;;5015493;28;20210;-74
2022/11/15 12:41:30;;;;;;;0.00;0.00;;;;;;;;;;5016028;28;20287;-74
2022/11/15 12:43:58;;;;;;;0.00;0.00;;;;;;;;;;5012545;28;20665;-73
2022/11/15 12:46:41;;;;;;;0.00;0.00;;;;;;;;;;5014547;28;20204;-74
2022/11/15 12:49:10;;;;;;;0.00;0.00;;;;;;;;;;5015869;28;20208;-74
2022/11/15 12:52:08;;;;;;;0.00;0.00;;;;;;;;;;5015388;28;20200;-74
2022/11/15 12:54:54;;;;;;;0.00;0.00;;;;;;;;;;5015502;28;20232;-74
2022/11/15 12:57:33;;;;;;;0.00;0.00;;;;;;;;;;5008325;28;20200;-74
2022/11/15 13:00:02;;;;;;;0.00;0.00;;;;;;;;;;5017632;28;20211;-74
2022/11/15 13:02:32;;;;;;;0.00;0.00;;;;;;;;;;5015139;28;20302;-74
2022/11/15 13:05:14;;;;;;;0.00;0.00;;;;;;;;;;5015107;28;20204;-74
2022/11/15 13:07:57;;;;;;;0.00;0.00;;;;;;;;;;5015694;28;20326;-74
2022/11/15 13:10:32;;;;;;;0.00;0.00;;;;;;;;;;5010487;28;20297;-73
2022/11/15 13:13:01;;;;;;;0.00;0.00;;;;;;;;;;5012891;28;20223;-74
2022/11/15 13:15:36;;;;;;;0.00;0.00;;;;;;;;;;5015001;28;20250;-74
2022/11/15 13:18:18;;;;;;;0.00;0.00;;;;;;;;;;5019936;28;20206;-74
2022/11/15 13:20:46;;;;;;;0.00;0.00;;;;;;;;;;5018148;28;20200;-74
2022/11/15 13:23:15;;;;;;;0.00;0.00;;;;;;;;;;5016746;28;20226;-74
2022/11/15 13:25:57;;;;;;;0.00;0.00;;;;;;;;;;5012490;28;20207;-74
2022/11/15 13:28:29;;;;;;;0.00;0.00;;;;;;;;;;5019057;28;20703;-74
2022/11/15 13:30:57;;;;;;;0.00;0.00;;;;;;;;;;5025621;28;20219;-73
2022/11/15 13:33:28;;;;;;;0.00;0.00;;;;;;;;;;5018316;28;20223;-74
2022/11/15 13:35:56;;;;;;;0.00;0.00;;;;;;;;;;5013387;28;20771;-74
2022/11/15 13:38:28;;;;;;;0.00;0.00;;;;;;;;;;5025557;28;20207;-74
2022/11/15 13:40:55;;;;;;;0.00;0.00;;;;;;;;;;5018701;28;20219;-74
2022/11/15 13:43:36;;;;;;;0.00;0.00;;;;;;;;;;5018317;28;20219;-74
2022/11/15 13:46:08;;;;;;;0.00;0.00;;;;;;;;;;5018433;28;20200;-73
2022/11/15 13:48:36;;;;;;;0.00;0.00;;;;;;;;;;5027333;28;20204;-74
2022/11/15 13:51:04;;;;;;;0.00;0.00;;;;;;;;;;5025160;28;20196;-73
2022/11/15 13:53:33;;;;;;;0.00;0.00;;;;;;;;;;5011709;28;20227;-74
2022/11/15 13:56:01;;;;;;;0.00;0.00;;;;;;;;;;5017339;28;20223;-73
2022/11/15 13:58:28;;;;;;;0.00;0.00;;;;;;;;;;5017390;28;20227;-73
2022/11/15 14:01:02;;;;;;;0.00;0.00;;;;;;;;;;5017599;28;20231;-73
2022/11/15 14:03:31;;;;;;;0.00;0.00;;;;;;;;;;5009226;28;20219;-74
2022/11/15 14:06:07;;;;;;;0.00;0.00;;;;;;;;;;5026986;28;20291;-73
2022/11/15 14:08:35;;;;;;;0.00;0.00;;;;;;;;;;5007652;28;20212;-74
2022/11/15 14:11:10;;;;;;;0.00;0.00;;;;;;;;;;5018098;28;20200;-73
2022/11/15 14:13:38;;;;;;;0.00;0.00;;;;;;;;;;5011300;28;20656;-74
2022/11/15 14:16:19;;;;;;;0.00;0.00;;;;;;;;;;5018567;28;20204;-73
2022/11/15 14:18:48;;;;;;;0.00;0.00;;;;;;;;;;5010709;28;20261;-74
2022/11/15 14:21:16;;;;;;;0.00;0.00;;;;;;;;;;5017595;28;20204;-74
2022/11/15 14:23:43;;;;;;;0.00;0.00;;;;;;;;;;5016397;28;20232;-73
2022/11/15 14:26:27;;;;;;;0.00;0.00;;;;;;;;;;5028290;28;20202;-74
2022/11/15 14:28:54;;;;;;;0.00;0.00;;;;;;;;;;5016063;28;20226;-73
2022/11/15 14:31:23;;;;;;;0.00;0.00;;;;;;;;;;5009898;28;20216;-74
2022/11/15 14:33:51;;;;;;;0.00;0.00;;;;;;;;;;5016360;28;20250;-74
2022/11/15 14:36:19;;;;;;;0.00;0.00;;;;;;;;;;5007481;28;20200;-74
2022/11/15 14:38:47;;;;;;;0.00;0.00;;;;;;;;;;5018041;28;20270;-74
2022/11/15 14:41:19;;;;;;;0.00;0.00;;;;;;;;;;5016727;28;20218;-74
2022/11/15 14:43:47;;;;;;;0.00;0.00;;;;;;;;;;5008893;28;20227;-73
2022/11/15 14:46:14;;;;;;;0.00;0.00;;;;;;;;;;5015199;28;20223;-73
2022/11/15 14:48:43;;;;;;;0.00;0.00;;;;;;;;;;5014935;28;20218;-74
2022/11/15 14:51:13;;;;;;;0.00;0.00;;;;;;;;;;5010040;28;20210;-74
2022/11/15 14:53:41;;;;;;;0.00;0.00;;;;;;;;;;5017577;28;20223;-74
2022/11/15 14:56:08;;;;;;;0.00;0.00;;;;;;;;;;5018399;28;20196;-74
2022/11/15 14:58:36;;;;;;;0.00;0.00;;;;;;;;;;5017486;28;20212;-73
2022/11/15 15:01:03;;;;;;;0.00;0.00;;;;;;;;;;5017429;28;20689;-74
2022/11/15 15:03:31;;;;;;;0.00;0.00;;;;;;;;;;5017373;28;20245;-74
2022/11/15 15:06:00;;;;;;;0.00;0.00;;;;;;;;;;5017459;28;20250;-74
2022/11/15 15:08:27;;;;;;;0.00;0.00;;;;;;;;;;5017178;28;20203;-74
2022/11/15 15:10:55;;;;;;;0.00;0.00;;;;;;;;;;5016400;28;20234;-74
2022/11/15 15:13:23;;;;;;;0.00;0.00;;;;;;;;;;5017166;28;20239;-74
2022/11/15 15:15:52;;;;;;;0.00;0.00;;;;;;;;;;5017067;28;20196;-74
2022/11/15 15:18:20;;;;;;;0.00;0.00;;;;;;;;;;5010813;28;20305;-74
2022/11/15 15:20:50;;;;;;;0.00;0.00;;;;;;;;;;5013844;28;20204;-74
2022/11/15 15:23:22;;;;;;;0.00;0.00;;;;;;;;;;5017389;28;20235;-74
2022/11/15 15:25:50;;;;;;;0.00;0.00;;;;;;;;;;5008281;28;20227;-74
2022/11/15 15:28:17;;;;;;;0.00;0.00;;;;;;;;;;5015821;28;20188;-74
2022/11/15 15:30:44;;;;;;;0.00;0.00;;;;;;;;;;5017323;28;20223;-74
2022/11/15 15:33:12;;;;;;;0.00;0.00;;;;;;;;;;5007267;28;20223;-74
2022/11/15 15:35:39;;;;;;;0.00;0.00;;;;;;;;;;5015420;28;20207;-74
2022/11/15 15:38:07;;;;;;;0.00;0.00;;;;;;;;;;5016095;28;20235;-74
2022/11/15 15:40:35;;;;;;;0.00;0.00;;;;;;;;;;5020740;28;20195;-74
2022/11/15 15:43:08;;;;;;;0.00;0.00;;;;;;;;;;5031750;28;20227;-74
2022/11/15 15:45:37;;;;;;;0.00;0.00;;;;;;;;;;5020349;28;20227;-74
2022/11/15 15:48:05;;;;;;;0.00;0.00;;;;;;;;;;5018701;28;20255;-74
2022/11/15 15:50:34;;;;;;;0.00;0.00;;;;;;;;;;5013314;28;20224;-74
2022/11/15 15:53:02;;;;;;;0.00;0.00;;;;;;;;;;5020998;28;20286;-74
2022/11/15 15:55:30;;;;;;;0.00;0.00;;;;;;;;;;5012773;28;20231;-76
2022/11/15 15:57:59;;;;;;;0.00;0.00;;;;;;;;;;5017093;28;20279;-74
2022/11/15 16:00:26;;;;;;;0.00;0.00;;;;;;;;;;5016649;28;20216;-73
2022/11/15 16:02:54;;;;;;;0.00;0.00;;;;;;;;;;5018943;28;20305;-75
2022/11/15 16:05:21;;;;;;;0.00;0.00;;;;;;;;;;5016615;28;20205;-73
2022/11/15 16:07:49;;;;;;;0.00;0.00;;;;;;;;;;5010523;28;20202;-73
2022/11/15 16:10:24;;;;;;;0.00;0.00;;;;;;;;;;5021596;28;20223;-73
2022/11/15 16:12:52;;;;;;;0.00;0.00;;;;;;;;;;5020595;28;20216;-73
2022/11/15 16:15:21;;;;;;;0.00;0.00;;;;;;;;;;5018322;28;20239;-73